Greenbrier, Tennessee
Current Conditions -  °F | °C
As of 3:35 PM on Sunday 23 Nov 2014 (Local Time) from KM91 Reporting Station
Overcast Overcast  
Wind Chill: 57°   Ceiling: 1000
Heat Index: 57°   Visibility: 6mi
Dew Point: 57°   Wind: 13mph
Humidity: 100%   Direction: 150°SSE
Pressure: 29.42"   Gusts: NA
Location:  36.43°N, 86.8°W
Report Text: KM91 232135Z AUTO 15011KT 110V180 6SM BKN010 BKN016 OVC022 14/14 A2942 RMK
Loading
Personal Weather Stations






























Interactive Weather Map New forecast layout! Learn more

10-Day Weather Forecast

Advertisements
Track Severe Weather on mobile